Time;durP1;ratioP1;P1;durP2;ratioP2;P2;SDS_P1;SDS_P2;PMS_P1;PMS_P2;Temp;Humidity;BMP_temperature;BMP_pressure;BME280_temperature;BME280_humidity;BME280_pressure;Samples;Min_cycle;Max_cycle;Signal;HPM_P1;HPM_P2
2021/03/10 00:01:32;;;;;;;31.52;16.90;;;7.10;99.90;;;;;;5013378;28;20034;-61
2021/03/10 00:03:57;;;;;;;31.58;18.15;;;7.10;99.90;;;;;;5011940;28;20033;-61
2021/03/10 00:06:23;;;;;;;29.40;17.42;;;7.10;99.90;;;;;;5013194;28;20049;-60
2021/03/10 00:08:49;;;;;;;26.40;16.52;;;7.10;99.90;;;;;;5012386;28;20057;-60
2021/03/10 00:11:15;;;;;;;30.35;17.65;;;7.10;99.90;;;;;;5013521;28;20037;-60
2021/03/10 00:13:40;;;;;;;26.85;16.95;;;7.10;99.90;;;;;;5012368;28;20025;-61
2021/03/10 00:16:07;;;;;;;30.50;17.52;;;7.10;99.90;;;;;;5012825;28;20431;-61
2021/03/10 00:18:32;;;;;;;30.20;17.90;;;7.10;99.90;;;;;;5012057;28;20041;-61
2021/03/10 00:20:58;;;;;;;28.92;17.67;;;7.10;99.90;;;;;;5012875;28;20042;-60
2021/03/10 00:23:24;;;;;;;28.23;17.58;;;7.00;99.90;;;;;;5011857;28;20033;-60
2021/03/10 00:25:49;;;;;;;30.15;17.77;;;7.00;99.90;;;;;;5012315;28;20458;-61
2021/03/10 00:28:15;;;;;;;30.17;17.63;;;7.00;99.90;;;;;;5012985;28;20041;-59
2021/03/10 00:30:41;;;;;;;33.97;17.98;;;7.00;99.90;;;;;;5012130;28;20038;-61
2021/03/10 00:33:06;;;;;;;27.10;16.90;;;7.00;99.90;;;;;;5012481;28;20036;-60
2021/03/10 00:35:32;;;;;;;30.67;17.95;;;7.10;99.90;;;;;;5011284;28;20064;-61
2021/03/10 00:37:59;;;;;;;33.92;18.23;;;7.10;99.90;;;;;;5012785;28;20050;-61
2021/03/10 00:40:25;;;;;;;30.20;17.45;;;7.10;99.90;;;;;;5012030;28;20034;-60
2021/03/10 00:42:51;;;;;;;36.10;19.40;;;7.10;99.90;;;;;;5012353;28;20285;-60
2021/03/10 00:45:17;;;;;;;30.23;18.42;;;7.10;99.90;;;;;;5011601;28;20109;-60
2021/03/10 00:47:43;;;;;;;32.40;19.85;;;7.10;99.90;;;;;;5012518;28;20042;-61
2021/03/10 00:50:09;;;;;;;33.55;19.30;;;7.10;99.90;;;;;;5011750;28;20865;-61
2021/03/10 00:52:34;;;;;;;32.33;18.67;;;7.10;99.90;;;;;;5011980;28;20099;-59
2021/03/10 00:55:00;;;;;;;33.88;19.42;;;7.10;99.90;;;;;;5011643;28;20484;-61
2021/03/10 00:57:26;;;;;;;30.25;19.23;;;7.10;99.90;;;;;;5012242;28;20022;-60
2021/03/10 00:59:51;;;;;;;32.65;19.02;;;7.10;99.90;;;;;;5011152;28;20033;-60
2021/03/10 01:02:17;;;;;;;37.90;19.77;;;7.10;99.90;;;;;;5012303;28;20093;-61
2021/03/10 01:04:43;;;;;;;30.88;18.67;;;7.10;99.90;;;;;;5011181;28;20026;-60
2021/03/10 01:07:09;;;;;;;32.50;18.13;;;7.10;99.90;;;;;;5012071;28;20144;-61
2021/03/10 01:09:34;;;;;;;30.90;18.60;;;7.10;99.90;;;;;;5011274;28;20037;-60
2021/03/10 01:12:00;;;;;;;28.50;18.42;;;7.20;99.90;;;;;;5012408;28;20065;-60
2021/03/10 01:14:25;;;;;;;33.40;19.08;;;7.20;99.90;;;;;;5010915;28;20029;-61
2021/03/10 01:16:51;;;;;;;34.50;19.30;;;7.10;99.90;;;;;;5011951;28;20468;-60
2021/03/10 01:19:17;;;;;;;35.50;20.17;;;7.20;99.90;;;;;;5011042;28;20037;-59
2021/03/10 01:21:43;;;;;;;33.05;18.27;;;7.10;99.90;;;;;;5030388;28;20073;-61
2021/03/10 01:24:09;;;;;;;30.33;17.80;;;7.20;99.90;;;;;;5030389;28;20044;-59
2021/03/10 01:26:35;;;;;;;31.75;18.90;;;7.20;99.90;;;;;;5031875;28;20044;-61
2021/03/10 01:29:01;;;;;;;27.98;18.20;;;7.20;99.90;;;;;;5030856;28;20390;-60
2021/03/10 01:31:28;;;;;;;29.45;19.20;;;7.20;99.90;;;;;;5031283;28;20036;-61
2021/03/10 01:33:53;;;;;;;38.20;20.42;;;7.30;99.90;;;;;;5030636;28;20025;-59
2021/03/10 01:36:19;;;;;;;34.63;20.13;;;7.20;99.90;;;;;;5030761;28;20025;-61
2021/03/10 01:38:45;;;;;;;35.22;19.17;;;7.20;99.90;;;;;;5031410;28;20487;-61
2021/03/10 01:41:13;;;;;;;32.20;19.75;;;7.20;99.90;;;;;;5030388;28;20111;-60
2021/03/10 01:43:39;;;;;;;33.85;18.95;;;7.20;99.90;;;;;;5031534;28;20029;-61
2021/03/10 01:46:05;;;;;;;31.08;19.55;;;7.20;99.90;;;;;;5030858;28;20044;-60
2021/03/10 01:48:31;;;;;;;36.13;20.02;;;7.20;99.90;;;;;;5031224;28;20025;-60
2021/03/10 01:50:57;;;;;;;36.55;20.08;;;7.20;99.90;;;;;;5030484;28;20036;-61
2021/03/10 01:53:23;;;;;;;37.00;20.45;;;7.20;99.90;;;;;;5031578;28;20106;-61
2021/03/10 01:55:52;;;;;;;34.65;19.98;;;7.20;99.90;;;;;;5030060;28;20029;-61
2021/03/10 01:58:18;;;;;;;33.97;19.33;;;7.20;99.90;;;;;;5031504;28;20379;-60
2021/03/10 02:00:43;;;;;;;37.53;21.42;;;7.20;99.90;;;;;;5030579;28;20029;-60
2021/03/10 02:03:09;;;;;;;32.63;19.38;;;7.20;99.90;;;;;;5030964;28;20535;-59
2021/03/10 02:05:35;;;;;;;32.40;19.38;;;7.20;99.90;;;;;;5030278;28;20113;-60
2021/03/10 02:08:18;;;;;;;34.97;20.33;;;7.20;99.90;;;;;;5030715;28;20030;-59
2021/03/10 02:11:14;;;;;;;35.28;19.13;;;7.20;99.90;;;;;;5030523;28;20021;-59
2021/03/10 02:14:13;;;;;;;34.10;20.52;;;7.20;99.90;;;;;;5031480;28;20484;-60
2021/03/10 02:16:57;;;;;;;32.58;19.40;;;7.20;99.90;;;;;;5013170;28;20037;-61
2021/03/10 02:20:09;;;;;;;33.67;18.88;;;7.20;99.90;;;;;;5030362;28;20079;-59
2021/03/10 02:22:58;;;;;;;33.83;19.45;;;7.20;99.90;;;;;;5030465;28;20049;-61
2021/03/10 02:25:40;;;;;;;33.90;19.13;;;7.20;99.90;;;;;;5030337;28;20026;-60
2021/03/10 02:28:07;;;;;;;35.75;19.30;;;7.20;99.90;;;;;;5031065;28;20057;-60
2021/03/10 02:30:39;;;;;;;34.08;19.30;;;7.20;99.90;;;;;;5030215;28;20029;-59
2021/03/10 02:33:10;;;;;;;35.85;19.65;;;7.20;99.90;;;;;;5031564;28;20362;-59
2021/03/10 02:35:40;;;;;;;36.28;21.05;;;7.20;99.90;;;;;;5030045;28;20045;-59
2021/03/10 02:38:08;;;;;;;35.20;19.98;;;7.20;99.90;;;;;;5030567;28;20040;-60
2021/03/10 02:40:39;;;;;;;33.83;19.98;;;7.20;99.90;;;;;;5012579;28;20030;-60
2021/03/10 02:43:06;;;;;;;32.63;20.23;;;7.20;99.90;;;;;;5031084;28;20046;-58
2021/03/10 02:45:33;;;;;;;37.67;19.50;;;7.20;99.90;;;;;;5029273;28;20032;-61
2021/03/10 02:48:01;;;;;;;32.65;19.50;;;7.20;99.90;;;;;;5032474;28;20033;-60
2021/03/10 02:50:27;;;;;;;34.63;20.50;;;7.30;99.90;;;;;;5034024;28;20048;-60
2021/03/10 02:52:54;;;;;;;32.17;19.85;;;7.30;99.90;;;;;;5016238;28;20038;-60
2021/03/10 02:55:20;;;;;;;35.55;20.42;;;7.30;99.90;;;;;;5032706;28;20036;-61
2021/03/10 02:57:46;;;;;;;36.50;20.95;;;7.30;99.90;;;;;;5033953;28;20029;-60
2021/03/10 03:00:16;;;;;;;32.30;19.83;;;7.30;99.90;;;;;;5033719;28;20033;-59
2021/03/10 03:02:42;;;;;;;33.90;19.27;;;7.30;99.90;;;;;;5033916;28;20084;-62
2021/03/10 03:05:08;;;;;;;33.90;20.52;;;7.30;99.90;;;;;;5033428;28;20041;-59
2021/03/10 03:07:37;;;;;;;32.55;19.58;;;7.30;99.90;;;;;;5033762;28;20105;-59
2021/03/10 03:10:07;;;;;;;33.92;19.95;;;7.20;99.90;;;;;;5033992;28;20057;-60
2021/03/10 03:12:33;;;;;;;31.70;18.80;;;7.30;99.90;;;;;;5033462;28;20059;-59
2021/03/10 03:15:00;;;;;;;33.10;20.13;;;7.30;99.90;;;;;;5033611;28;20427;-59
2021/03/10 03:17:29;;;;;;;35.25;20.50;;;7.30;99.90;;;;;;5033619;28;20026;-60
2021/03/10 03:19:54;;;;;;;32.05;19.90;;;7.30;99.90;;;;;;5033098;28;20029;-59
2021/03/10 03:22:21;;;;;;;33.72;19.20;;;7.20;99.90;;;;;;5015936;28;20104;-60
2021/03/10 03:24:49;;;;;;;32.00;20.05;;;7.20;99.90;;;;;;5013191;28;20026;-59
2021/03/10 03:27:25;;;;;;;34.72;20.60;;;7.20;99.90;;;;;;5014046;28;20511;-60
2021/03/10 03:29:54;;;;;;;34.38;21.08;;;7.20;99.90;;;;;;4995184;28;20448;-60
2021/03/10 03:32:22;;;;;;;37.40;19.80;;;7.20;99.90;;;;;;5013699;28;20065;-60
2021/03/10 03:34:48;;;;;;;35.53;20.30;;;7.20;99.90;;;;;;5013007;28;20026;-60
2021/03/10 03:37:15;;;;;;;36.35;19.42;;;7.30;99.90;;;;;;5013924;28;20037;-59
2021/03/10 03:39:40;;;;;;;40.72;21.35;;;7.20;99.90;;;;;;5014041;28;20448;-59
2021/03/10 03:42:06;;;;;;;34.70;20.35;;;7.30;99.90;;;;;;5012846;28;20041;-59
2021/03/10 03:44:32;;;;;;;40.10;20.50;;;7.30;99.90;;;;;;5013630;28;20033;-60
2021/03/10 03:46:59;;;;;;;35.95;21.13;;;7.30;99.90;;;;;;5013233;28;20038;-60
2021/03/10 03:49:24;;;;;;;36.67;21.10;;;7.30;99.90;;;;;;5013887;28;20104;-60
2021/03/10 03:51:50;;;;;;;39.55;21.85;;;7.40;99.90;;;;;;5012228;28;20157;-60
2021/03/10 03:54:15;;;;;;;43.47;22.08;;;7.30;99.90;;;;;;5013244;28;20030;-59
2021/03/10 03:56:41;;;;;;;37.35;20.92;;;7.40;99.90;;;;;;5012855;28;20518;-59
2021/03/10 03:59:07;;;;;;;37.80;21.15;;;7.40;99.90;;;;;;5012962;28;20435;-60
2021/03/10 04:01:32;;;;;;;35.72;21.45;;;7.40;99.90;;;;;;5012032;28;20025;-59
2021/03/10 04:03:58;;;;;;;38.33;22.35;;;7.40;99.90;;;;;;5013338;28;20038;-61
2021/03/10 04:06:24;;;;;;;37.38;22.15;;;7.40;99.90;;;;;;5012568;28;20112;-60
2021/03/10 04:08:49;;;;;;;38.92;21.88;;;7.40;99.90;;;;;;5013313;28;20100;-61
2021/03/10 04:11:17;;;;;;;40.10;21.92;;;7.40;99.90;;;;;;5012285;28;20022;-59
2021/03/10 04:13:42;;;;;;;35.97;21.10;;;7.40;99.90;;;;;;5013346;28;20030;-60
2021/03/10 04:16:09;;;;;;;39.30;21.63;;;7.50;99.90;;;;;;5012198;28;20100;-59
2021/03/10 04:18:38;;;;;;;38.28;23.13;;;7.50;99.90;;;;;;5012999;28;20225;-61
2021/03/10 04:21:06;;;;;;;41.45;21.95;;;7.40;99.90;;;;;;5011775;28;20395;-60
2021/03/10 04:23:32;;;;;;;35.70;22.77;;;7.50;99.90;;;;;;5012847;28;20440;-61
2021/03/10 04:25:57;;;;;;;39.28;22.40;;;7.50;99.90;;;;;;5012017;28;20057;-60
2021/03/10 04:28:23;;;;;;;43.30;25.00;;;7.40;99.90;;;;;;5012821;28;20068;-60
2021/03/10 04:30:49;;;;;;;46.63;24.25;;;7.40;99.90;;;;;;5012491;28;20061;-60
2021/03/10 04:33:14;;;;;;;40.92;23.35;;;7.40;99.90;;;;;;5012515;28;20037;-59
2021/03/10 04:35:40;;;;;;;40.10;24.92;;;7.30;99.90;;;;;;5012199;28;20038;-60
2021/03/10 04:38:06;;;;;;;49.72;25.58;;;7.20;99.90;;;;;;5012333;28;20037;-61
2021/03/10 04:40:31;;;;;;;39.70;25.15;;;7.30;99.90;;;;;;5011525;28;20026;-59
2021/03/10 04:42:57;;;;;;;41.25;24.77;;;7.30;99.90;;;;;;5012709;28;20112;-60
2021/03/10 04:45:23;;;;;;;46.80;25.15;;;7.30;99.90;;;;;;5012002;28;20040;-61
2021/03/10 04:47:49;;;;;;;48.15;24.95;;;7.20;99.90;;;;;;5012355;28;20816;-60
2021/03/10 04:50:16;;;;;;;45.03;24.67;;;7.20;99.90;;;;;;5011936;28;20029;-60
2021/03/10 04:52:43;;;;;;;44.35;24.90;;;7.20;99.90;;;;;;5012162;28;20054;-59
2021/03/10 04:55:09;;;;;;;39.25;24.05;;;7.20;99.90;;;;;;5012430;28;20440;-60
2021/03/10 04:57:36;;;;;;;41.13;23.00;;;7.20;99.90;;;;;;5011307;28;20038;-61
2021/03/10 05:00:05;;;;;;;43.10;24.83;;;7.20;99.90;;;;;;5012156;28;20458;-60
2021/03/10 05:02:31;;;;;;;49.60;25.27;;;7.20;99.90;;;;;;5010997;28;20484;-60
2021/03/10 05:04:57;;;;;;;47.65;25.17;;;7.20;99.90;;;;;;5012517;28;20046;-61
2021/03/10 05:07:22;;;;;;;43.15;24.55;;;7.20;99.90;;;;;;5011393;28;20036;-59
2021/03/10 05:09:48;;;;;;;42.50;25.13;;;7.20;99.90;;;;;;5011839;28;20088;-59
2021/03/10 05:12:14;;;;;;;41.35;23.40;;;7.20;99.90;;;;;;5010936;28;20112;-60
2021/03/10 05:14:40;;;;;;;43.75;24.65;;;7.20;99.90;;;;;;5011954;28;20486;-60
2021/03/10 05:17:05;;;;;;;38.55;23.60;;;7.20;99.90;;;;;;5011631;28;20029;-60
2021/03/10 05:19:31;;;;;;;49.03;23.77;;;7.20;99.90;;;;;;5011906;28;20104;-60
2021/03/10 05:21:57;;;;;;;41.65;24.05;;;7.30;99.90;;;;;;5010631;28;20176;-60
2021/03/10 05:24:22;;;;;;;41.55;24.90;;;7.30;99.90;;;;;;5011774;28;20021;-60
2021/03/10 05:26:48;;;;;;;42.55;24.33;;;7.30;99.90;;;;;;5011426;28;20097;-59
2021/03/10 05:29:14;;;;;;;43.58;23.40;;;7.40;99.90;;;;;;5011395;28;20037;-60
2021/03/10 05:31:40;;;;;;;41.67;25.08;;;7.30;99.90;;;;;;5011170;28;20037;-60
2021/03/10 05:34:05;;;;;;;42.25;24.42;;;7.30;99.90;;;;;;5012002;28;20034;-60
2021/03/10 05:36:31;;;;;;;43.03;25.30;;;7.30;99.90;;;;;;5011165;28;20041;-59
2021/03/10 05:38:57;;;;;;;43.00;24.30;;;7.30;99.90;;;;;;5011632;28;20116;-59
2021/03/10 05:41:23;;;;;;;45.85;25.08;;;7.30;99.90;;;;;;5011054;28;20467;-60
2021/03/10 05:43:48;;;;;;;50.42;24.90;;;7.30;99.90;;;;;;5012174;28;20491;-60
2021/03/10 05:46:14;;;;;;;41.55;24.90;;;7.30;99.90;;;;;;5011127;28;20113;-59
2021/03/10 05:48:40;;;;;;;43.45;24.35;;;7.30;99.90;;;;;;5011664;28;20034;-60
2021/03/10 05:51:07;;;;;;;36.85;22.23;;;7.20;99.90;;;;;;5010650;28;20065;-59
2021/03/10 05:53:41;;;;;;;45.28;25.77;;;7.30;99.90;;;;;;5011187;28;20025;-60
2021/03/10 05:56:07;;;;;;;50.22;25.08;;;7.20;99.90;;;;;;5010527;28;20040;-60
2021/03/10 05:58:33;;;;;;;44.35;25.48;;;7.20;99.90;;;;;;5011184;28;20068;-59
2021/03/10 06:00:59;;;;;;;46.10;24.92;;;7.20;99.90;;;;;;5010659;28;20021;-58
2021/03/10 06:03:25;;;;;;;45.10;26.05;;;7.20;99.90;;;;;;5011362;28;20026;-61
2021/03/10 06:06:01;;;;;;;56.20;27.00;;;7.20;99.90;;;;;;5009801;28;20041;-60
2021/03/10 06:08:31;;;;;;;54.08;26.65;;;7.20;99.90;;;;;;5011334;28;20034;-58
2021/03/10 06:10:57;;;;;;;42.95;25.58;;;7.30;99.90;;;;;;5010899;28;20080;-59
2021/03/10 06:13:25;;;;;;;49.88;25.75;;;7.20;99.90;;;;;;4993393;28;20488;-60
2021/03/10 06:15:53;;;;;;;49.92;27.33;;;7.20;99.90;;;;;;5008272;28;20026;-59
2021/03/10 06:18:35;;;;;;;43.70;25.90;;;7.20;99.90;;;;;;5010752;28;20038;-59
2021/03/10 06:21:09;;;;;;;44.78;25.27;;;7.20;99.90;;;;;;5010674;28;20062;-59
2021/03/10 06:23:50;;;;;;;48.15;25.83;;;7.20;99.90;;;;;;4997501;28;20301;-59
2021/03/10 06:26:26;;;;;;;48.00;26.80;;;7.20;99.90;;;;;;5013831;28;20029;-58
2021/03/10 06:28:53;;;;;;;50.65;27.67;;;7.20;99.90;;;;;;5007206;28;20038;-60
2021/03/10 06:31:24;;;;;;;45.28;26.55;;;7.20;99.90;;;;;;5014055;28;20036;-59
2021/03/10 06:34:02;;;;;;;53.38;27.15;;;7.10;99.90;;;;;;5014645;28;20149;-60
2021/03/10 06:36:29;;;;;;;56.25;28.65;;;7.10;99.90;;;;;;4996740;28;20040;-58
2021/03/10 06:38:55;;;;;;;48.33;28.17;;;7.20;99.90;;;;;;5014704;28;20500;-59
2021/03/10 06:41:31;;;;;;;54.60;28.63;;;7.20;99.90;;;;;;5013803;28;20072;-61
2021/03/10 06:43:57;;;;;;;48.45;27.25;;;7.20;99.90;;;;;;5014309;28;20045;-61
2021/03/10 06:46:23;;;;;;;51.72;28.45;;;7.20;99.90;;;;;;5014052;28;20030;-60
2021/03/10 06:48:59;;;;;;;64.00;31.70;;;7.10;99.90;;;;;;5014655;28;20109;-60
2021/03/10 06:51:26;;;;;;;52.28;26.00;;;7.10;99.90;;;;;;5014174;28;20172;-59
2021/03/10 06:53:52;;;;;;;47.92;25.88;;;7.10;99.90;;;;;;4996614;28;20380;-59
2021/03/10 06:56:29;;;;;;;53.45;26.67;;;7.10;99.90;;;;;;5013410;28;20037;-58
2021/03/10 06:58:59;;;;;;;44.88;25.38;;;7.10;99.90;;;;;;5014161;28;20022;-59
2021/03/10 07:01:40;;;;;;;45.35;24.90;;;7.20;99.90;;;;;;5013878;28;20395;-58
2021/03/10 07:04:10;;;;;;;46.03;25.10;;;7.20;99.90;;;;;;5014176;28;20030;-60
2021/03/10 07:06:37;;;;;;;51.00;26.48;;;7.10;99.90;;;;;;5013629;28;20053;-59
2021/03/10 07:09:06;;;;;;;48.15;27.00;;;7.20;99.90;;;;;;5014900;28;20034;-59
2021/03/10 07:11:33;;;;;;;42.80;25.02;;;7.20;99.90;;;;;;5013085;28;20034;-59
2021/03/10 07:14:00;;;;;;;52.30;26.40;;;7.20;99.90;;;;;;5013959;28;20034;-59
2021/03/10 07:16:31;;;;;;;47.40;25.48;;;7.20;99.90;;;;;;4996149;28;20065;-60
2021/03/10 07:18:56;;;;;;;54.17;26.75;;;7.10;99.90;;;;;;5014405;28;20030;-60
2021/03/10 07:21:28;;;;;;;55.17;28.58;;;7.10;99.90;;;;;;5013021;28;20488;-60
2021/03/10 07:23:57;;;;;;;45.85;26.20;;;7.20;99.90;;;;;;5014054;28;20045;-60
2021/03/10 07:26:24;;;;;;;46.38;24.30;;;7.20;99.90;;;;;;5013705;28;20025;-60
2021/03/10 07:28:53;;;;;;;47.88;25.38;;;7.10;99.90;;;;;;5013905;28;20030;-58
2021/03/10 07:31:21;;;;;;;39.38;22.35;;;7.20;99.90;;;;;;5013172;28;20029;-59
2021/03/10 07:33:53;;;;;;;51.03;24.52;;;7.20;99.90;;;;;;5012509;28;20488;-60
2021/03/10 07:36:18;;;;;;;44.38;22.75;;;7.20;99.90;;;;;;5013572;28;20041;-59
2021/03/10 07:38:44;;;;;;;47.88;23.70;;;7.20;99.90;;;;;;5013276;28;20038;-58
2021/03/10 07:41:15;;;;;;;40.28;22.42;;;7.20;99.90;;;;;;5012774;28;20498;-59
2021/03/10 07:43:45;;;;;;;40.72;22.67;;;7.20;99.90;;;;;;5012076;28;20034;-60
2021/03/10 07:46:21;;;;;;;48.33;22.13;;;7.20;99.90;;;;;;5012450;28;20392;-59
2021/03/10 07:48:47;;;;;;;42.42;24.30;;;7.20;99.90;;;;;;5010694;28;20029;-58
2021/03/10 07:51:33;;;;;;;46.40;22.83;;;7.20;99.90;;;;;;5012371;28;20025;-60
2021/03/10 07:54:00;;;;;;;42.47;22.83;;;7.20;99.90;;;;;;5012477;28;20030;-59
2021/03/10 07:56:29;;;;;;;44.70;24.15;;;7.10;99.90;;;;;;5013021;28;20491;-59
2021/03/10 07:59:09;;;;;;;51.22;25.67;;;7.10;99.90;;;;;;5011429;28;20040;-57
2021/03/10 08:01:35;;;;;;;46.60;25.75;;;7.20;99.90;;;;;;5010632;28;20468;-59
2021/03/10 08:04:18;;;;;;;51.72;25.88;;;7.10;99.90;;;;;;5010607;28;20396;-59
2021/03/10 08:06:49;;;;;;;53.10;26.40;;;7.10;99.90;;;;;;5010501;28;20022;-57
2021/03/10 08:09:17;;;;;;;57.70;28.60;;;7.10;99.90;;;;;;5011278;28;20038;-59
2021/03/10 08:11:45;;;;;;;53.78;29.25;;;7.20;99.90;;;;;;5010335;28;20511;-59
2021/03/10 08:14:15;;;;;;;58.17;28.60;;;7.20;99.90;;;;;;5009809;28;20026;-57
2021/03/10 08:16:48;;;;;;;80.55;44.10;;;7.40;99.90;;;;;;5010478;28;20029;-58
2021/03/10 08:19:23;;;;;;;55.03;28.83;;;7.30;99.90;;;;;;5007311;28;20083;-58
2021/03/10 08:21:54;;;;;;;62.33;31.60;;;7.20;99.90;;;;;;5023496;28;20061;-59
2021/03/10 08:24:22;;;;;;;63.33;30.67;;;7.20;99.90;;;;;;5029441;28;20022;-58
2021/03/10 08:26:53;;;;;;;64.70;31.55;;;7.20;99.90;;;;;;5029910;28;20033;-55
2021/03/10 08:29:20;;;;;;;54.67;30.23;;;7.20;99.90;;;;;;5032090;28;20044;-59
2021/03/10 08:31:54;;;;;;;58.92;31.92;;;7.30;99.90;;;;;;5030492;28;20104;-59
2021/03/10 08:34:37;;;;;;;58.17;31.50;;;7.30;99.90;;;;;;5030909;28;20030;-61
2021/03/10 08:37:11;;;;;;;57.65;31.92;;;7.20;99.90;;;;;;5030690;28;20740;-59
2021/03/10 08:39:45;;;;;;;56.45;32.33;;;7.20;99.90;;;;;;5032095;28;20025;-58
2021/03/10 08:42:16;;;;;;;64.37;31.23;;;7.20;99.90;;;;;;5030538;28;20376;-60
2021/03/10 08:44:44;;;;;;;66.95;32.03;;;7.20;99.90;;;;;;5030951;28;20029;-59
2021/03/10 08:47:12;;;;;;;58.08;31.05;;;7.20;99.90;;;;;;5029305;28;20034;-59
2021/03/10 08:49:38;;;;;;;59.80;31.65;;;7.20;99.90;;;;;;5031221;28;20434;-60
2021/03/10 08:52:24;;;;;;;61.88;30.95;;;7.20;99.90;;;;;;5029119;28;20041;-60
2021/03/10 08:54:57;;;;;;;60.17;31.27;;;7.20;99.90;;;;;;5029783;28;20053;-60
2021/03/10 08:57:29;;;;;;;62.00;30.83;;;7.20;99.90;;;;;;5030164;28;20046;-59
2021/03/10 08:59:55;;;;;;;56.33;30.75;;;7.30;99.90;;;;;;5031369;28;20030;-58
2021/03/10 09:02:32;;;;;;;60.95;31.27;;;7.40;99.90;;;;;;5023112;28;20479;-59
2021/03/10 09:04:59;;;;;;;53.72;29.85;;;7.30;99.90;;;;;;5010906;28;21153;-60
2021/03/10 09:07:27;;;;;;;60.10;31.05;;;7.40;99.90;;;;;;5030865;28;20041;-59
2021/03/10 09:09:55;;;;;;;62.90;31.40;;;7.40;99.90;;;;;;5030260;28;20044;-60
2021/03/10 09:12:22;;;;;;;83.80;42.72;;;7.40;99.90;;;;;;5029206;28;20029;-60
2021/03/10 09:14:48;;;;;;;61.95;31.20;;;7.50;99.90;;;;;;5028778;28;20124;-59
2021/03/10 09:17:13;;;;;;;53.13;29.75;;;7.50;99.90;;;;;;5029660;28;20120;-59
2021/03/10 09:19:40;;;;;;;59.70;30.00;;;7.50;99.90;;;;;;5030775;28;20455;-60
2021/03/10 09:22:10;;;;;;;58.20;28.60;;;7.50;99.90;;;;;;5012608;28;20042;-63
2021/03/10 09:25:03;;;;;;;57.20;30.10;;;7.60;99.90;;;;;;4994820;28;20029;-59
2021/03/10 09:27:31;;;;;;;61.72;29.90;;;7.60;99.90;;;;;;5010030;28;20076;-59
2021/03/10 09:29:59;;;;;;;59.70;30.02;;;7.60;99.90;;;;;;5011126;28;20132;-60
2021/03/10 09:32:37;;;;;;;54.35;29.15;;;7.50;99.90;;;;;;5008621;28;20474;-61
2021/03/10 09:35:11;;;;;;;59.22;30.20;;;7.60;99.90;;;;;;5010946;28;20053;-59
2021/03/10 09:37:43;;;;;;;54.20;28.42;;;7.60;99.90;;;;;;5009165;28;20041;-60
2021/03/10 09:40:10;;;;;;;61.53;29.30;;;7.60;99.90;;;;;;5007826;28;20033;-60
2021/03/10 09:42:35;;;;;;;55.25;28.65;;;7.70;99.90;;;;;;5008611;28;20060;-61
2021/03/10 09:45:01;;;;;;;57.15;29.73;;;7.60;99.90;;;;;;5009320;28;20065;-60
2021/03/10 09:47:27;;;;;;;56.15;29.88;;;7.70;99.90;;;;;;5007651;28;20056;-60
2021/03/10 09:49:59;;;;;;;61.53;29.70;;;7.70;99.90;;;;;;5009226;28;20034;-59
2021/03/10 09:52:38;;;;;;;52.83;27.70;;;7.70;99.90;;;;;;5008964;28;20407;-61
2021/03/10 09:55:08;;;;;;;59.92;28.77;;;7.70;99.90;;;;;;5009784;28;20030;-60
2021/03/10 09:57:34;;;;;;;54.20;27.88;;;7.70;99.90;;;;;;5009468;28;20089;-61
2021/03/10 10:00:00;;;;;;;61.72;28.30;;;7.70;99.90;;;;;;5010139;28;20033;-59
2021/03/10 10:02:27;;;;;;;55.03;28.33;;;7.70;99.90;;;;;;5010583;28;20072;-59
2021/03/10 10:05:04;;;;;;;49.88;24.98;;;7.70;99.90;;;;;;5010522;28;20038;-60
2021/03/10 10:07:31;;;;;;;51.97;26.48;;;7.70;99.90;;;;;;5009003;28;20465;-59
2021/03/10 10:09:57;;;;;;;48.15;25.20;;;7.80;99.90;;;;;;5011562;28;20105;-61
2021/03/10 10:12:24;;;;;;;44.22;23.10;;;7.90;99.90;;;;;;5009101;28;20034;-61
2021/03/10 10:14:50;;;;;;;45.45;23.35;;;7.80;99.90;;;;;;5011147;28;20038;-59
2021/03/10 10:17:16;;;;;;;48.90;24.40;;;7.80;99.90;;;;;;5009655;28;20042;-60
2021/03/10 10:19:43;;;;;;;48.13;23.27;;;7.90;99.90;;;;;;5008240;28;20465;-60
2021/03/10 10:22:10;;;;;;;46.15;23.10;;;7.90;99.90;;;;;;5026336;28;20057;-60
2021/03/10 10:24:36;;;;;;;42.53;21.13;;;7.90;99.90;;;;;;5028649;28;20109;-60
2021/03/10 10:27:02;;;;;;;38.33;21.95;;;7.90;99.90;;;;;;5029864;28;20030;-59
2021/03/10 10:29:27;;;;;;;41.00;21.30;;;7.90;99.90;;;;;;5029462;28;20044;-60
2021/03/10 10:31:53;;;;;;;44.33;20.88;;;7.80;99.90;;;;;;5030501;28;20109;-60
2021/03/10 10:34:19;;;;;;;42.15;19.48;;;7.80;99.90;;;;;;5029284;28;20030;-60
2021/03/10 10:36:45;;;;;;;44.22;20.52;;;7.70;99.90;;;;;;5029233;28;20037;-62
2021/03/10 10:39:11;;;;;;;44.75;19.88;;;7.70;99.90;;;;;;5026368;28;20041;-61
2021/03/10 10:41:36;;;;;;;45.97;21.42;;;7.80;99.90;;;;;;5029494;28;20057;-60
2021/03/10 10:44:02;;;;;;;39.63;19.52;;;7.80;99.90;;;;;;5028749;28;20709;-58
2021/03/10 10:46:28;;;;;;;38.78;19.27;;;7.80;99.90;;;;;;5029498;28;20112;-59
2021/03/10 10:48:54;;;;;;;40.05;18.80;;;7.70;99.90;;;;;;5028495;28;20022;-59
2021/03/10 10:51:21;;;;;;;38.88;19.00;;;7.80;99.90;;;;;;5029642;28;20033;-60
2021/03/10 10:53:48;;;;;;;34.83;18.85;;;7.80;99.90;;;;;;5029212;28;20064;-59
2021/03/10 10:56:14;;;;;;;34.92;18.38;;;7.80;99.90;;;;;;5029143;28;20072;-58
2021/03/10 10:58:40;;;;;;;33.50;18.80;;;7.80;99.90;;;;;;5027929;28;20084;-59
2021/03/10 11:01:06;;;;;;;35.60;17.20;;;7.90;99.90;;;;;;5029433;28;20037;-59
2021/03/10 11:03:31;;;;;;;36.33;17.30;;;7.90;99.90;;;;;;5026725;28;20087;-60
2021/03/10 11:05:57;;;;;;;33.85;16.00;;;7.90;99.90;;;;;;5029016;28;20033;-59
2021/03/10 11:08:23;;;;;;;38.58;17.13;;;7.90;99.90;;;;;;5027220;28;20460;-60
2021/03/10 11:10:48;;;;;;;32.05;17.02;;;7.90;99.90;;;;;;5031648;28;20029;-61
2021/03/10 11:13:14;;;;;;;29.98;17.40;;;8.00;99.90;;;;;;5027068;28;20574;-59
2021/03/10 11:15:40;;;;;;;32.70;15.68;;;8.00;99.90;;;;;;5033194;28;20118;-59
2021/03/10 11:18:05;;;;;;;34.30;15.98;;;8.00;99.90;;;;;;5031942;28;20802;-59
2021/03/10 11:20:31;;;;;;;34.08;16.90;;;7.90;99.90;;;;;;5030098;28;20080;-59
2021/03/10 11:22:56;;;;;;;31.02;15.18;;;7.90;99.90;;;;;;5010849;28;20034;-59
2021/03/10 11:25:22;;;;;;;29.00;15.40;;;7.90;99.90;;;;;;5012574;28;20026;-59
2021/03/10 11:27:48;;;;;;;29.92;14.55;;;8.00;99.90;;;;;;5011255;28;20538;-59
2021/03/10 11:30:15;;;;;;;30.17;14.32;;;8.00;99.90;;;;;;4995342;28;20030;-61
2021/03/10 11:32:40;;;;;;;25.50;13.75;;;8.00;99.90;;;;;;5009116;28;20030;-59
2021/03/10 11:35:09;;;;;;;31.23;14.77;;;8.00;99.90;;;;;;5009800;28;20487;-60
2021/03/10 11:37:36;;;;;;;25.92;14.13;;;8.10;99.90;;;;;;5012156;28;20056;-60
2021/03/10 11:40:04;;;;;;;34.30;14.63;;;8.10;99.90;;;;;;5018530;28;20033;-59
2021/03/10 11:42:30;;;;;;;29.73;13.77;;;8.10;99.90;;;;;;5012408;28;20042;-60
2021/03/10 11:44:55;;;;;;;27.70;13.73;;;8.10;99.90;;;;;;5002245;28;20108;-58
2021/03/10 11:47:21;;;;;;;27.48;13.77;;;8.10;99.90;;;;;;5013048;28;20030;-58
2021/03/10 11:49:47;;;;;;;24.92;13.07;;;8.10;99.90;;;;;;5012705;28;20464;-59
2021/03/10 11:52:12;;;;;;;26.05;13.48;;;8.10;99.90;;;;;;5013530;28;20038;-59
2021/03/10 11:54:38;;;;;;;22.42;12.93;;;8.10;99.90;;;;;;5012796;28;20532;-58
2021/03/10 11:57:05;;;;;;;25.80;12.80;;;8.20;99.90;;;;;;5013550;28;20550;-58
2021/03/10 11:59:30;;;;;;;23.38;12.38;;;8.10;99.90;;;;;;5012107;28;20069;-59
2021/03/10 12:01:57;;;;;;;20.65;11.80;;;8.10;99.90;;;;;;5013614;28;20065;-59
2021/03/10 12:04:22;;;;;;;24.60;11.95;;;8.00;99.90;;;;;;5013218;28;20387;-59
2021/03/10 12:06:48;;;;;;;20.30;11.50;;;8.10;99.90;;;;;;5013286;28;20022;-60
2021/03/10 12:09:14;;;;;;;20.17;11.32;;;8.20;99.90;;;;;;4994066;28;20116;-58
2021/03/10 12:11:40;;;;;;;19.75;9.93;;;8.10;99.90;;;;;;5013289;28;20053;-58
2021/03/10 12:14:05;;;;;;;21.80;10.02;;;8.20;99.90;;;;;;5013583;28;20435;-60
2021/03/10 12:16:31;;;;;;;18.45;9.85;;;8.20;99.90;;;;;;5011530;28;20052;-59
2021/03/10 12:18:57;;;;;;;20.40;10.15;;;8.10;99.90;;;;;;5012558;28;20034;-59
2021/03/10 12:21:22;;;;;;;17.98;8.98;;;8.10;99.90;;;;;;5033941;28;20037;-61
2021/03/10 12:23:48;;;;;;;15.30;9.40;;;8.10;99.90;;;;;;5032327;28;20398;-60
2021/03/10 12:26:14;;;;;;;19.20;9.38;;;8.10;99.90;;;;;;5032173;28;20057;-58
2021/03/10 12:28:39;;;;;;;13.32;8.93;;;8.10;99.90;;;;;;5032249;28;20033;-60
2021/03/10 12:31:05;;;;;;;15.57;8.25;;;8.20;99.90;;;;;;5032707;28;20075;-59
2021/03/10 12:33:31;;;;;;;14.15;7.60;;;8.20;99.90;;;;;;5031622;28;20108;-60
2021/03/10 12:35:56;;;;;;;16.27;8.23;;;8.20;99.90;;;;;;5032257;28;20087;-59
2021/03/10 12:38:22;;;;;;;15.23;8.88;;;8.20;99.90;;;;;;5030486;28;20108;-59
2021/03/10 12:40:48;;;;;;;13.45;7.35;;;8.20;99.90;;;;;;5032568;28;20574;-59
2021/03/10 12:43:13;;;;;;;14.07;6.68;;;8.20;99.90;;;;;;5014546;28;20487;-60